Time;durP1;ratioP1;P1;durP2;ratioP2;P2;SDS_P1;SDS_P2;PMS_P1;PMS_P2;Temp;Humidity;BMP_temperature;BMP_pressure;BME280_temperature;BME280_humidity;BME280_pressure;Samples;Min_cycle;Max_cycle;Signal;HPM_P1;HPM_P2
2022/02/12 00:01:55;;;;;;;11.95;4.93;;;;;;;-2.40;100.00;97023.06;4987816;28;20038;-77
2022/02/12 00:04:21;;;;;;;12.68;4.95;;;;;;;-2.68;100.00;97026.56;4987061;28;20122;-77
2022/02/12 00:06:46;;;;;;;11.45;4.75;;;;;;;-2.63;100.00;97034.69;4989483;28;20038;-77
2022/02/12 00:09:12;;;;;;;10.30;4.70;;;;;;;-2.65;100.00;97036.56;4989190;28;20038;-77
2022/02/12 00:11:37;;;;;;;9.38;4.05;;;;;;;-2.55;100.00;97039.06;4988766;28;20497;-77
2022/02/12 00:14:03;;;;;;;9.93;4.38;;;;;;;-2.68;100.00;97036.88;4988103;28;20047;-77
2022/02/12 00:16:28;;;;;;;9.65;4.43;;;;;;;-2.87;100.00;97039.63;4984126;28;20388;-76
2022/02/12 00:18:54;;;;;;;14.40;5.18;;;;;;;-3.12;100.00;97034.19;4987545;28;20042;-77
2022/02/12 00:21:24;;;;;;;9.55;4.82;;;;;;;-3.16;100.00;97033.69;4989360;28;20393;-77
2022/02/12 00:23:49;;;;;;;10.48;4.72;;;;;;;-3.11;100.00;97030.69;4980331;28;20046;-77
2022/02/12 00:26:16;;;;;;;13.90;4.47;;;;;;;-3.10;100.00;97016.84;4991656;28;20496;-77
2022/02/12 00:28:41;;;;;;;9.02;4.90;;;;;;;-3.13;100.00;97014.56;4997661;28;20042;-77
2022/02/12 00:31:10;;;;;;;14.65;4.97;;;;;;;-2.99;100.00;97014.06;5001418;28;20043;-77
2022/02/12 00:33:36;;;;;;;18.10;5.13;;;;;;;-2.96;100.00;97018.09;4997110;28;20038;-77
2022/02/12 00:36:01;;;;;;;15.85;5.70;;;;;;;-2.98;100.00;97025.97;4988975;28;20042;-77
2022/02/12 00:38:27;;;;;;;16.73;5.10;;;;;;;-3.02;100.00;97019.50;4991869;28;20069;-77
2022/02/12 00:40:52;;;;;;;16.35;5.75;;;;;;;-3.22;100.00;97023.16;5007527;28;20042;-77
2022/02/12 00:43:18;;;;;;;17.33;5.00;;;;;;;-3.25;100.00;97018.31;4993150;28;20038;-77
2022/02/12 00:45:46;;;;;;;11.77;4.60;;;;;;;-3.27;100.00;97009.94;4991415;28;20571;-77
2022/02/12 00:48:12;;;;;;;10.25;5.20;;;;;;;-3.24;100.00;97007.06;5005461;28;20054;-77
2022/02/12 00:50:37;;;;;;;11.82;4.70;;;;;;;-3.18;100.00;97003.88;4994820;28;20121;-77
2022/02/12 00:53:03;;;;;;;8.80;4.85;;;;;;;-3.15;100.00;97008.75;4986544;28;20049;-77
2022/02/12 00:55:29;;;;;;;11.10;4.50;;;;;;;-3.21;100.00;97009.34;4993780;28;20104;-77
2022/02/12 00:57:54;;;;;;;14.07;4.65;;;;;;;-3.35;100.00;97008.06;4993728;28;20512;-77
2022/02/12 01:00:21;;;;;;;8.07;4.47;;;;;;;-3.59;100.00;97011.16;4992612;28;20070;-77
2022/02/12 01:02:47;;;;;;;11.85;4.95;;;;;;;-3.52;100.00;97007.06;4992138;28;20049;-77
2022/02/12 01:05:12;;;;;;;13.52;5.10;;;;;;;-3.52;100.00;97009.63;4992875;28;20050;-77
2022/02/12 01:07:38;;;;;;;10.32;4.30;;;;;;;-3.60;100.00;97010.34;4991781;28;20046;-77
2022/02/12 01:10:04;;;;;;;11.15;4.30;;;;;;;-3.67;100.00;97004.97;4993163;28;20393;-77
2022/02/12 01:12:30;;;;;;;10.98;4.47;;;;;;;-3.58;100.00;96998.16;4992971;28;20046;-77
2022/02/12 01:14:56;;;;;;;13.45;4.50;;;;;;;-3.57;100.00;97009.28;4987397;28;20545;-76
2022/02/12 01:17:21;;;;;;;9.85;4.35;;;;;;;-3.59;100.00;97018.88;4989899;28;20089;-77
2022/02/12 01:19:52;;;;;;;12.07;4.60;;;;;;;-3.66;100.00;97011.75;4993539;28;20053;-77
2022/02/12 01:22:18;;;;;;;10.30;4.65;;;;;;;-3.75;100.00;97012.59;4992783;28;20043;-77
2022/02/12 01:24:44;;;;;;;9.50;4.70;;;;;;;-3.61;100.00;97010.50;4991657;28;20050;-77
2022/02/12 01:27:09;;;;;;;13.18;4.57;;;;;;;-3.69;100.00;97022.31;4991855;28;20038;-77
2022/02/12 01:29:35;;;;;;;10.82;4.47;;;;;;;-3.64;100.00;97013.38;4990908;28;20042;-77
2022/02/12 01:32:04;;;;;;;11.93;4.35;;;;;;;-3.54;100.00;97008.97;4987658;28;20390;-77
2022/02/12 01:34:34;;;;;;;11.68;4.00;;;;;;;-3.45;100.00;97008.09;5006716;28;20042;-77
2022/02/12 01:37:01;;;;;;;7.97;4.10;;;;;;;-3.47;100.00;97004.88;4991573;28;20515;-77
2022/02/12 01:39:27;;;;;;;8.57;4.25;;;;;;;-3.44;100.00;96994.28;4991765;28;20053;-77
2022/02/12 01:41:53;;;;;;;8.02;4.30;;;;;;;-3.46;100.00;96991.06;4998494;28;20039;-77
2022/02/12 01:44:32;;;;;;;9.43;4.05;;;;;;;-3.42;100.00;97002.69;4997716;28;20066;-77
2022/02/12 01:46:59;;;;;;;9.70;4.00;;;;;;;-3.45;100.00;96984.13;4985724;28;20126;-77
2022/02/12 01:49:26;;;;;;;10.20;4.18;;;;;;;-3.36;100.00;96985.84;4990603;28;20044;-77
2022/02/12 01:51:54;;;;;;;11.63;4.20;;;;;;;-3.40;100.00;96985.31;4996374;28;20548;-76
2022/02/12 01:54:20;;;;;;;9.77;3.95;;;;;;;-3.35;99.86;96983.13;4999618;28;20046;-77
2022/02/12 01:56:46;;;;;;;7.55;3.90;;;;;;;-3.35;99.38;96977.16;4992081;28;20053;-77
2022/02/12 01:59:11;;;;;;;8.55;4.20;;;;;;;-3.38;98.49;96967.97;4992140;28;20581;-77
2022/02/12 02:01:37;;;;;;;10.27;3.90;;;;;;;-3.36;98.05;96976.38;4991282;28;20052;-77
2022/02/12 02:04:03;;;;;;;7.07;3.70;;;;;;;-3.38;97.96;96973.09;5003175;28;20034;-76
2022/02/12 02:06:28;;;;;;;8.95;4.30;;;;;;;-3.36;97.31;96968.63;4991385;28;20043;-77
2022/02/12 02:08:54;;;;;;;9.63;3.80;;;;;;;-3.44;98.08;96968.56;4993839;28;20533;-76
2022/02/12 02:11:19;;;;;;;12.82;4.45;;;;;;;-3.57;98.81;96962.94;5001747;28;20038;-76
2022/02/12 02:13:45;;;;;;;8.90;4.18;;;;;;;-3.75;100.00;96958.56;5003849;28;20045;-77
2022/02/12 02:16:15;;;;;;;9.60;4.47;;;;;;;-3.67;100.00;96953.50;4994772;28;20042;-77
2022/02/12 02:18:41;;;;;;;12.93;4.75;;;;;;;-3.52;98.50;96953.00;4995212;28;20046;-77
2022/02/12 02:21:07;;;;;;;9.02;4.07;;;;;;;-3.56;97.96;96954.25;4996122;28;20105;-77
2022/02/12 02:23:35;;;;;;;11.38;3.88;;;;;;;-3.70;99.46;96953.78;5003856;28;20046;-76
2022/02/12 02:26:02;;;;;;;10.68;3.80;;;;;;;-3.70;99.20;96958.94;5014603;28;20082;-77
2022/02/12 02:28:28;;;;;;;11.75;4.22;;;;;;;-3.79;99.36;96953.84;5007912;28;20091;-77
2022/02/12 02:30:54;;;;;;;11.13;4.47;;;;;;;-3.87;100.00;96957.13;5014562;28;20043;-77
2022/02/12 02:33:19;;;;;;;11.73;4.47;;;;;;;-4.26;100.00;96958.09;5011918;28;20042;-77
2022/02/12 02:35:46;;;;;;;8.43;4.07;;;;;;;-4.40;100.00;96951.63;5003849;28;20069;-78
2022/02/12 02:38:17;;;;;;;14.73;4.45;;;;;;;-3.86;100.00;96948.47;5029241;28;20054;-77
2022/02/12 02:40:45;;;;;;;10.13;3.95;;;;;;;-3.76;98.35;96956.94;5013691;28;20062;-78
2022/02/12 02:43:11;;;;;;;10.77;4.10;;;;;;;-3.90;99.48;96957.44;5000173;28;20038;-78
2022/02/12 02:45:37;;;;;;;11.98;4.72;;;;;;;-4.09;100.00;96953.97;5001642;28;20046;-77
2022/02/12 02:48:04;;;;;;;9.35;4.45;;;;;;;-3.98;100.00;96959.88;4993543;28;20038;-76
2022/02/12 02:56:07;;;;;;;9.10;4.07;;;;;;;-4.28;100.00;96959.19;5007527;28;20038;-78
2022/02/12 02:58:53;;;;;;;15.82;4.60;;;;;;;-3.93;100.00;96953.38;5005392;28;20069;-78
2022/02/12 03:01:27;;;;;;;9.77;4.30;;;;;;;-3.87;98.83;96957.13;5013242;28;20099;-77
2022/02/12 03:03:54;;;;;;;8.98;4.18;;;;;;;-3.92;98.23;96949.03;5006641;28;20049;-78
2022/02/12 03:06:28;;;;;;;10.40;4.28;;;;;;;-4.04;98.00;96950.97;5007073;28;20053;-77
2022/02/12 03:08:55;;;;;;;9.88;4.30;;;;;;;-3.92;97.92;96938.75;5008489;28;20046;-78
2022/02/12 03:11:21;;;;;;;9.85;4.00;;;;;;;-3.97;97.26;96936.59;5007868;28;20049;-78
2022/02/12 03:13:48;;;;;;;13.15;4.35;;;;;;;-4.03;98.22;96940.56;5009176;28;20108;-77
2022/02/12 03:16:14;;;;;;;10.65;4.28;;;;;;;-3.98;98.07;96944.47;5004574;28;20045;-79
2022/02/12 03:18:42;;;;;;;9.27;4.15;;;;;;;-4.04;97.00;96940.69;5006145;28;20054;-79
2022/02/12 03:21:07;;;;;;;9.43;3.95;;;;;;;-4.28;99.12;96936.03;4994553;28;20042;-79
2022/02/12 03:23:34;;;;;;;9.45;3.97;;;;;;;-4.24;99.60;96939.97;4992764;28;20586;-78
2022/02/12 03:25:59;;;;;;;9.95;4.25;;;;;;;-4.00;98.16;96937.69;4991495;28;20073;-79
2022/02/12 03:28:25;;;;;;;8.85;4.43;;;;;;;-4.15;98.04;96936.56;4991151;28;20385;-79
2022/02/12 03:30:51;;;;;;;10.85;4.15;;;;;;;-4.36;100.00;96927.28;4988865;28;20100;-79
2022/02/12 03:33:17;;;;;;;11.38;4.32;;;;;;;-4.54;100.00;96927.22;4991532;28;20105;-78
2022/02/12 03:35:43;;;;;;;11.88;4.32;;;;;;;-4.77;100.00;96931.03;5005339;28;20050;-80
2022/02/12 03:38:13;;;;;;;11.63;4.00;;;;;;;-4.71;100.00;96920.22;4989872;28;20097;-78
2022/02/12 03:40:41;;;;;;;11.00;4.00;;;;;;;-4.60;100.00;96919.25;4990504;28;20042;-78
2022/02/12 03:43:08;;;;;;;7.95;4.03;;;;;;;-4.65;100.00;96916.28;4987735;28;20070;-79
2022/02/12 03:45:34;;;;;;;12.45;4.22;;;;;;;-4.38;100.00;96924.03;4985283;28;20044;-80
2022/02/12 03:48:01;;;;;;;9.15;3.92;;;;;;;-4.44;99.24;96919.47;4988852;28;20125;-80
2022/02/12 03:50:31;;;;;;;7.95;4.13;;;;;;;-4.48;99.40;96910.44;4986118;28;20049;-79
2022/02/12 03:52:58;;;;;;;10.48;4.13;;;;;;;-4.56;99.62;96900.03;4990449;28;20047;-80
2022/02/12 03:55:24;;;;;;;9.30;3.70;;;;;;;-4.56;99.22;96905.16;5001886;28;20096;-80
2022/02/12 03:57:49;;;;;;;10.57;3.95;;;;;;;-4.57;99.21;96904.38;4992639;28;20042;-79
2022/02/12 04:00:16;;;;;;;8.68;4.15;;;;;;;-4.67;99.41;96907.91;4993700;28;20499;-80
2022/02/12 04:02:42;;;;;;;11.40;4.72;;;;;;;-4.80;100.00;96898.72;4993228;28;20500;-80
2022/02/12 04:05:10;;;;;;;9.93;4.40;;;;;;;-4.84;100.00;96902.53;4987727;28;20504;-80
2022/02/12 04:07:38;;;;;;;10.40;4.60;;;;;;;-4.77;100.00;96893.34;4996029;28;20046;-81
2022/02/12 04:10:08;;;;;;;11.18;4.32;;;;;;;-4.65;100.00;96890.59;4996696;28;20105;-80
2022/02/12 04:12:33;;;;;;;9.43;3.92;;;;;;;-4.73;100.00;96889.50;4982909;28;20057;-80
2022/02/12 04:14:59;;;;;;;11.52;4.13;;;;;;;-4.79;100.00;96886.72;4992893;28;20038;-81
2022/02/12 04:17:25;;;;;;;13.02;3.85;;;;;;;-4.89;100.00;96889.28;5004716;28;20053;-80
2022/02/12 04:19:51;;;;;;;8.48;3.80;;;;;;;-4.91;100.00;96875.78;5004716;28;20042;-80
2022/02/12 04:22:17;;;;;;;5.75;3.38;;;;;;;-4.90;100.00;96882.53;5005596;28;20053;-80
2022/02/12 04:24:43;;;;;;;11.73;4.53;;;;;;;-4.88;100.00;96885.78;5006000;28;20038;-80
2022/02/12 04:27:08;;;;;;;9.90;3.72;;;;;;;-5.06;100.00;96873.66;4999937;28;20094;-79
2022/02/12 04:29:34;;;;;;;8.65;3.83;;;;;;;-4.98;100.00;96879.88;5003158;28;20043;-79
2022/02/12 04:32:00;;;;;;;8.90;3.78;;;;;;;-4.97;100.00;96871.19;4998396;28;20031;-79
2022/02/12 04:34:25;;;;;;;12.55;3.90;;;;;;;-5.04;100.00;96881.22;4991592;28;20049;-79
2022/02/12 04:36:53;;;;;;;5.07;3.22;;;;;;;-4.99;100.00;96878.22;5002880;28;20636;-78
2022/02/12 04:39:19;;;;;;;7.88;4.00;;;;;;;-5.20;100.00;96870.69;5003392;28;20497;-79
2022/02/12 04:41:45;;;;;;;11.90;4.03;;;;;;;-5.63;100.00;96875.28;4998178;28;20121;-78
2022/02/12 04:44:11;;;;;;;9.45;4.45;;;;;;;-5.58;100.00;96868.00;4997933;28;20038;-78
2022/02/12 04:46:38;;;;;;;8.65;3.85;;;;;;;-5.34;100.00;96869.34;5009683;28;20579;-78
2022/02/12 04:49:05;;;;;;;9.52;4.05;;;;;;;-5.40;100.00;96868.94;5006318;28;20043;-79
2022/02/12 04:51:31;;;;;;;6.80;3.35;;;;;;;-5.34;100.00;96859.91;4996629;28;20042;-79
2022/02/12 04:53:58;;;;;;;8.52;4.00;;;;;;;-5.33;100.00;96861.53;4994223;28;20570;-78
2022/02/12 04:56:25;;;;;;;10.57;3.83;;;;;;;-5.33;100.00;96855.56;4996768;28;20057;-78
2022/02/12 04:58:51;;;;;;;8.27;3.13;;;;;;;-5.30;100.00;96850.16;4998861;28;20042;-78
2022/02/12 05:01:20;;;;;;;7.60;3.75;;;;;;;-5.31;100.00;96854.50;4995308;28;20093;-78
2022/02/12 05:03:54;;;;;;;6.50;3.47;;;;;;;-5.45;100.00;96853.13;5000006;28;20042;-78
2022/02/12 05:06:20;;;;;;;7.80;3.60;;;;;;;-5.54;100.00;96841.13;4998486;28;20038;-78
2022/02/12 05:08:47;;;;;;;6.55;3.42;;;;;;;-5.45;100.00;96842.06;4994587;28;20034;-78
2022/02/12 05:11:13;;;;;;;8.05;3.95;;;;;;;-5.50;100.00;96845.06;4993814;28;20120;-78
2022/02/12 05:13:39;;;;;;;9.32;3.33;;;;;;;-5.47;100.00;96844.78;4994823;28;20492;-77
2022/02/12 05:16:06;;;;;;;7.32;3.67;;;;;;;-5.48;100.00;96843.16;4981803;28;20043;-78
2022/02/12 05:18:31;;;;;;;8.93;3.42;;;;;;;-5.43;100.00;96846.13;4999802;28;20508;-78
2022/02/12 05:20:57;;;;;;;7.97;3.80;;;;;;;-5.51;100.00;96840.06;4994202;28;20125;-78
2022/02/12 05:23:23;;;;;;;6.50;3.33;;;;;;;-5.58;100.00;96827.75;4993164;28;20043;-78
2022/02/12 05:25:49;;;;;;;7.45;3.28;;;;;;;-5.47;100.00;96844.78;4986845;28;20042;-77
2022/02/12 05:28:14;;;;;;;9.02;3.65;;;;;;;-5.58;100.00;96837.22;4992100;28;20472;-78
2022/02/12 05:30:41;;;;;;;8.57;3.35;;;;;;;-5.56;100.00;96840.44;4999284;28;20053;-78
2022/02/12 05:33:09;;;;;;;8.48;3.30;;;;;;;-5.65;100.00;96836.94;4986081;28;20405;-78
2022/02/12 05:35:36;;;;;;;6.88;3.17;;;;;;;-5.57;100.00;96831.16;4991056;28;20527;-78
2022/02/12 05:38:02;;;;;;;6.88;3.35;;;;;;;-5.56;100.00;96830.19;4999520;28;20046;-78
2022/02/12 05:40:28;;;;;;;6.32;3.15;;;;;;;-5.68;100.00;96821.03;4992866;28;20081;-78
2022/02/12 05:42:54;;;;;;;7.45;3.47;;;;;;;-5.68;100.00;96826.16;4990443;28;20121;-78
2022/02/12 05:45:20;;;;;;;11.43;4.05;;;;;;;-5.85;100.00;96825.84;4991213;28;20038;-78
2022/02/12 05:47:46;;;;;;;8.50;3.80;;;;;;;-5.87;100.00;96838.00;4991388;28;20117;-78
2022/02/12 05:50:12;;;;;;;6.15;3.50;;;;;;;-5.71;100.00;96829.78;4991659;28;20046;-77
2022/02/12 05:52:38;;;;;;;9.75;3.83;;;;;;;-5.86;100.00;96829.38;4991816;28;20112;-78
2022/02/12 05:55:04;;;;;;;9.65;3.22;;;;;;;-5.96;100.00;96839.63;4988759;28;20500;-77
2022/02/12 05:57:30;;;;;;;7.90;3.35;;;;;;;-5.83;100.00;96834.25;4997840;28;20039;-78
2022/02/12 05:59:55;;;;;;;9.55;3.40;;;;;;;-5.76;100.00;96825.06;4993028;28;20072;-78
2022/02/12 06:02:21;;;;;;;9.35;3.15;;;;;;;-5.76;100.00;96832.75;4992126;28;20073;-77
2022/02/12 06:04:47;;;;;;;6.68;3.20;;;;;;;-5.72;100.00;96837.63;4990349;28;20038;-77
2022/02/12 06:07:12;;;;;;;8.00;3.22;;;;;;;-5.77;100.00;96831.13;4990337;28;20043;-77
2022/02/12 06:09:38;;;;;;;7.10;3.63;;;;;;;-6.01;100.00;96820.50;4990643;28;20045;-77
2022/02/12 06:12:05;;;;;;;5.82;3.10;;;;;;;-6.21;100.00;96823.00;4988141;28;20476;-77
2022/02/12 06:14:31;;;;;;;7.53;3.75;;;;;;;-5.95;100.00;96827.59;5004490;28;20053;-77
2022/02/12 06:16:58;;;;;;;6.78;3.25;;;;;;;-5.95;100.00;96830.16;5005750;28;20038;-77
2022/02/12 06:19:24;;;;;;;6.47;3.47;;;;;;;-5.81;100.00;96824.66;4989166;28;20122;-77
2022/02/12 06:21:50;;;;;;;10.38;3.97;;;;;;;-5.79;100.00;96825.34;4993176;28;20408;-77
2022/02/12 06:24:16;;;;;;;5.30;3.00;;;;;;;-5.90;100.00;96822.91;4990299;28;20459;-77
2022/02/12 06:26:46;;;;;;;8.05;3.42;;;;;;;-6.03;100.00;96817.22;4990065;28;20048;-77
2022/02/12 06:29:16;;;;;;;9.43;3.20;;;;;;;-6.00;100.00;96824.69;4990405;28;20039;-77
2022/02/12 06:31:41;;;;;;;8.98;3.88;;;;;;;-5.99;100.00;96826.28;4988797;28;20042;-77
2022/02/12 06:34:07;;;;;;;6.60;3.63;;;;;;;-5.88;100.00;96821.00;4986911;28;20064;-77
2022/02/12 06:36:32;;;;;;;7.85;3.38;;;;;;;-5.75;100.00;96821.56;4998286;28;20084;-77
2022/02/12 06:38:58;;;;;;;8.48;3.50;;;;;;;-5.76;100.00;96825.06;4995918;28;20050;-78
2022/02/12 06:41:24;;;;;;;9.75;3.97;;;;;;;-5.92;100.00;96814.50;4989864;28;20042;-76
2022/02/12 06:43:49;;;;;;;8.90;3.50;;;;;;;-6.01;100.00;96815.38;4999566;28;20042;-75
2022/02/12 06:46:15;;;;;;;8.07;3.63;;;;;;;-5.88;100.00;96810.75;4989743;28;20053;-77
2022/02/12 06:48:41;;;;;;;9.98;3.80;;;;;;;-5.91;100.00;96805.91;4989329;28;20628;-78
2022/02/12 06:51:06;;;;;;;9.68;3.83;;;;;;;-5.69;100.00;96809.13;4995965;28;20034;-78
2022/02/12 06:53:33;;;;;;;8.13;3.70;;;;;;;-5.65;100.00;96811.28;5016885;28;20077;-77
2022/02/12 06:56:00;;;;;;;6.80;3.55;;;;;;;-5.62;100.00;96805.09;4992220;28;20042;-77
2022/02/12 06:58:26;;;;;;;13.63;3.83;;;;;;;-5.67;100.00;96799.56;4992947;28;20049;-76
2022/02/12 07:00:51;;;;;;;9.95;3.97;;;;;;;-5.70;100.00;96812.63;4986219;28;20043;-78
2022/02/12 07:03:17;;;;;;;8.50;3.90;;;;;;;-5.71;100.00;96800.78;4995126;28;20108;-77
2022/02/12 07:05:43;;;;;;;8.15;3.53;;;;;;;-5.51;100.00;96807.50;4991309;28;20105;-77
2022/02/12 07:08:08;;;;;;;12.18;3.80;;;;;;;-5.52;100.00;96805.88;4995048;28;20113;-79
2022/02/12 07:10:36;;;;;;;9.48;3.92;;;;;;;-5.43;100.00;96799.94;4993478;28;20057;-81
2022/02/12 07:13:02;;;;;;;11.30;3.95;;;;;;;-5.47;100.00;96798.59;4992088;28;20034;-78
2022/02/12 07:15:28;;;;;;;10.27;4.57;;;;;;;-5.32;100.00;96806.66;4994585;28;20262;-77
2022/02/12 07:17:54;;;;;;;13.35;3.90;;;;;;;-5.28;100.00;96802.09;4979673;28;20074;-78
2022/02/12 07:20:20;;;;;;;9.90;4.32;;;;;;;-5.40;100.00;96794.53;4996557;28;20412;-79
2022/02/12 07:22:45;;;;;;;8.90;4.35;;;;;;;-5.46;100.00;96800.22;5001274;28;20069;-78
2022/02/12 07:25:13;;;;;;;12.43;4.30;;;;;;;-5.40;100.00;96799.66;4998139;28;20114;-78
2022/02/12 07:27:39;;;;;;;10.38;4.43;;;;;;;-5.35;100.00;96808.72;5002070;28;20039;-77
2022/02/12 07:30:11;;;;;;;7.97;4.40;;;;;;;-5.32;100.00;96795.59;4991693;28;20054;-77
2022/02/12 07:32:37;;;;;;;10.75;4.57;;;;;;;-5.24;100.00;96798.31;4993867;28;20155;-77
2022/02/12 07:35:08;;;;;;;11.43;5.07;;;;;;;-5.15;100.00;96797.47;5000845;28;20108;-79
2022/02/12 07:37:34;;;;;;;10.70;4.78;;;;;;;-5.03;100.00;96794.72;4995732;28;20050;-78
2022/02/12 07:40:00;;;;;;;10.80;5.03;;;;;;;-4.97;100.00;96794.16;4989670;28;20070;-80
2022/02/12 07:42:26;;;;;;;8.68;4.85;;;;;;;-4.41;100.00;96795.00;5012503;28;20051;-79
2022/02/12 07:44:52;;;;;;;15.23;6.22;;;;;;;-4.40;100.00;96789.72;4993734;28;20042;-78
2022/02/12 07:47:18;;;;;;;17.30;6.72;;;;;;;-4.43;100.00;96790.03;5001699;28;20053;-78
2022/02/12 07:49:43;;;;;;;13.15;5.80;;;;;;;-4.38;100.00;96779.34;5013093;28;20462;-77
2022/02/12 07:52:09;;;;;;;14.50;6.28;;;;;;;-4.32;100.00;96777.91;5006353;28;20046;-80
2022/02/12 07:54:34;;;;;;;16.48;6.97;;;;;;;-4.25;100.00;96781.53;4999966;28;20057;-78
2022/02/12 07:57:00;;;;;;;19.50;6.90;;;;;;;-4.22;100.00;96773.56;4994701;28;20049;-83
2022/02/12 07:59:26;;;;;;;15.48;6.97;;;;;;;-4.11;100.00;96770.75;5001094;28;20048;-80
2022/02/12 08:01:52;;;;;;;16.75;7.25;;;;;;;-4.05;100.00;96769.34;4995365;28;20049;-83
2022/02/12 08:04:17;;;;;;;24.65;6.80;;;;;;;-4.04;100.00;96769.25;4991298;28;20042;-81
2022/02/12 08:09:27;;;;;;;15.02;6.95;;;;;;;-3.89;100.00;96769.53;4996202;28;20046;-79
2022/02/12 08:12:01;;;;;;;16.80;7.13;;;;;;;-3.70;100.00;96763.41;4995408;28;20085;-79
2022/02/12 08:14:27;;;;;;;;;;;;;;;-3.52;100.00;96760.00;5000998;28;20100;-80
2022/02/12 08:16:53;;;;;;;20.80;8.73;;;;;;;-3.33;100.00;96748.72;5008495;28;19926;-80
2022/02/12 08:19:20;;;;;;;16.35;6.85;;;;;;;-3.28;100.00;96750.84;4998152;28;20056;-82
2022/02/12 08:21:45;;;;;;;15.68;6.50;;;;;;;-2.90;100.00;96759.91;4996518;28;20527;-80
2022/02/12 08:24:11;;;;;;;16.25;7.05;;;;;;;-2.90;100.00;96759.91;4994517;28;20068;-82
2022/02/12 08:26:36;;;;;;;16.50;7.22;;;;;;;-2.84;100.00;96750.75;4990712;28;20415;-80
2022/02/12 08:29:02;;;;;;;15.80;7.13;;;;;;;-2.30;100.00;96740.97;5006469;28;20053;-84
2022/02/12 08:31:30;;;;;;;14.38;6.90;;;;;;;-2.22;100.00;96741.94;4984577;28;20047;-80
2022/02/12 08:33:56;;;;;;;12.07;5.70;;;;;;;-2.06;100.00;96736.00;4981758;28;20385;-81
2022/02/12 08:36:21;;;;;;;17.48;6.88;;;;;;;-1.93;100.00;96742.28;4992977;28;20156;-83
2022/02/12 08:38:47;;;;;;;13.52;6.68;;;;;;;-2.15;100.00;96742.94;4999714;28;20465;-81
2022/02/12 08:41:13;;;;;;;13.00;6.03;;;;;;;-2.05;100.00;96738.44;4998235;28;20039;-79
2022/02/12 08:43:38;;;;;;;15.57;7.65;;;;;;;-2.07;100.00;96732.59;4993021;28;20058;-80
2022/02/12 08:46:04;;;;;;;11.43;5.55;;;;;;;-1.52;98.72;96732.94;5009054;28;20042;-81
2022/02/12 08:48:31;;;;;;;16.92;6.65;;;;;;;-1.36;97.11;96730.34;5001518;28;20688;-84
2022/02/12 08:50:57;;;;;;;15.35;6.38;;;;;;;-1.30;97.09;96727.09;4977774;28;20509;-82
2022/02/12 08:53:23;;;;;;;11.57;5.53;;;;;;;-1.19;95.70;96733.72;4990540;28;20592;-80
2022/02/12 08:55:49;;;;;;;15.82;6.72;;;;;;;-1.36;95.86;96727.78;4991415;28;20050;-80
2022/02/12 08:58:14;;;;;;;10.23;6.03;;;;;;;-1.09;95.82;96723.22;4993383;28;20046;-80
2022/02/12 09:00:41;;;;;;;11.70;5.53;;;;;;;-0.81;93.71;96722.78;5002467;28;20046;-84
2022/02/12 09:03:07;;;;;;;12.18;5.97;;;;;;;-0.96;94.71;96722.66;5002201;28;20045;-81
2022/02/12 09:05:32;;;;;;;11.13;5.30;;;;;;;-0.60;92.28;96717.84;5004591;28;20397;-75
2022/02/12 09:07:58;;;;;;;14.77;5.45;;;;;;;-0.50;92.44;96716.81;4993257;28;20073;-77
2022/02/12 09:10:24;;;;;;;12.27;4.72;;;;;;;-0.62;91.19;96711.22;5009897;28;20042;-83
2022/02/12 09:12:49;;;;;;;9.40;4.25;;;;;;;-0.46;90.00;96713.75;4993140;28;20038;-80
2022/02/12 09:15:15;;;;;;;10.52;4.68;;;;;;;-0.50;89.52;96706.47;4993159;28;20074;-79
2022/02/12 09:17:40;;;;;;;15.23;5.35;;;;;;;-0.77;91.57;96705.97;4997999;28;20045;-81
2022/02/12 09:20:06;;;;;;;10.60;4.65;;;;;;;-0.64;92.13;96705.44;4999016;28;20043;-78
2022/02/12 09:22:32;;;;;;;10.73;4.65;;;;;;;-0.20;87.06;96703.09;4996615;28;20096;-76
2022/02/12 09:24:57;;;;;;;8.13;3.85;;;;;;;-0.16;87.12;96700.16;4988945;28;20050;-77
2022/02/12 09:27:23;;;;;;;10.63;4.40;;;;;;;-0.12;86.95;96698.84;5001624;28;20145;-78
2022/02/12 09:29:50;;;;;;;8.63;3.70;;;;;;;-0.08;86.19;96694.94;4993809;28;20049;-78
2022/02/12 09:32:16;;;;;;;10.10;4.50;;;;;;;-0.14;86.21;96691.25;4994775;28;20053;-77
2022/02/12 09:34:41;;;;;;;9.38;4.28;;;;;;;0.01;86.02;96691.28;4996039;28;20041;-78
2022/02/12 09:37:07;;;;;;;8.05;4.00;;;;;;;0.05;86.27;96689.97;4996237;28;20048;-78
2022/02/12 09:39:33;;;;;;;9.38;4.43;;;;;;;0.23;85.08;96686.25;4998342;28;20109;-77
2022/02/12 09:41:58;;;;;;;8.57;3.97;;;;;;;0.37;85.95;96682.13;5005734;28;20043;-78
2022/02/12 09:44:24;;;;;;;10.05;4.32;;;;;;;0.12;85.71;96675.34;4998292;28;20562;-80
2022/02/12 09:47:08;;;;;;;13.43;4.55;;;;;;;-0.04;86.28;96665.16;4994504;28;20046;-80
2022/02/12 09:49:35;;;;;;;8.88;3.88;;;;;;;-0.02;87.38;96658.78;4995711;28;20038;-78
2022/02/12 09:52:02;;;;;;;11.68;4.80;;;;;;;-0.02;85.81;96658.00;4999221;28;20035;-79
2022/02/12 09:54:29;;;;;;;7.72;3.55;;;;;;;0.23;85.72;96665.56;4994668;28;20057;-78
2022/02/12 09:56:55;;;;;;;5.03;2.92;;;;;;;0.40;85.14;96661.84;4982728;28;20124;-78
2022/02/12 09:59:21;;;;;;;7.38;3.40;;;;;;;0.65;83.51;96656.44;4999738;28;20447;-79
2022/02/12 10:01:46;;;;;;;10.38;3.78;;;;;;;0.95;82.45;96653.81;5000745;28;20834;-78
2022/02/12 10:04:22;;;;;;;9.40;3.50;;;;;;;1.63;79.55;96651.00;5011933;28;20106;-77
2022/02/12 10:06:48;;;;;;;6.43;3.65;;;;;;;2.62;73.30;96647.63;4992794;28;20054;-78
2022/02/12 10:09:14;;;;;;;9.32;3.63;;;;;;;2.88;73.28;96649.56;5001757;28;20053;-77
2022/02/12 10:11:44;;;;;;;6.90;3.40;;;;;;;2.81;71.85;96655.72;4995762;28;20038;-76
2022/02/12 10:14:15;;;;;;;8.30;3.33;;;;;;;3.69;69.95;96652.47;4998054;28;20242;-76
2022/02/12 10:16:52;;;;;;;10.32;3.83;;;;;;;4.21;67.29;96643.13;4990134;28;20084;-77
2022/02/12 10:19:18;;;;;;;6.03;3.50;;;;;;;4.67;65.52;96655.28;5001584;28;20050;-74
2022/02/12 10:22:04;;;;;;;9.68;3.30;;;;;;;4.63;62.88;96645.47;4999132;28;20045;-74
2022/02/12 10:25:00;;;;;;;7.18;3.03;;;;;;;5.52;60.65;96637.94;4982186;28;20054;-76
2022/02/12 10:27:27;;;;;;;7.47;3.53;;;;;;;5.93;58.49;96633.28;4983288;28;20055;-74
2022/02/12 10:29:55;;;;;;;8.10;2.80;;;;;;;4.69;58.96;96634.22;4989112;28;20038;-75
2022/02/12 10:32:22;;;;;;;5.65;2.47;;;;;;;4.52;59.48;96633.84;4990043;28;20121;-74
2022/02/12 10:34:49;;;;;;;7.88;2.67;;;;;;;6.25;55.92;96636.69;4988011;28;20049;-74
2022/02/12 10:37:18;;;;;;;5.88;2.40;;;;;;;6.30;53.37;96618.53;4986837;28;20065;-75
2022/02/12 10:39:58;;;;;;;7.60;2.58;;;;;;;6.09;55.93;96613.69;4985160;28;20061;-75
2022/02/12 10:42:26;;;;;;;4.38;2.70;;;;;;;6.26;54.98;96612.13;4989448;28;20385;-77
2022/02/12 10:44:53;;;;;;;5.40;2.65;;;;;;;8.03;52.07;96612.28;4987523;28;21294;-76
2022/02/12 10:47:21;;;;;;;6.60;2.30;;;;;;;7.77;50.10;96606.41;4987780;28;20065;-76
2022/02/12 10:49:48;;;;;;;4.10;2.50;;;;;;;7.41;49.65;96605.50;4984860;28;20189;-77
2022/02/12 10:52:14;;;;;;;3.50;2.20;;;;;;;9.44;47.29;96597.41;5001182;28;20114;-76
2022/02/12 10:54:40;;;;;;;7.10;2.50;;;;;;;9.42;46.78;96588.94;4992484;28;20137;-78
2022/02/12 10:57:06;;;;;;;8.23;2.70;;;;;;;8.61;46.57;96588.94;5006855;28;20493;-81
2022/02/12 10:59:36;;;;;;;4.50;2.33;;;;;;;9.47;47.35;96575.91;4992879;28;20050;-75
2022/02/12 11:02:07;;;;;;;4.88;2.20;;;;;;;9.04;46.34;96571.16;4994822;28;20497;-78
2022/02/12 11:04:37;;;;;;;4.57;2.45;;;;;;;9.86;43.43;96568.16;4991597;28;20043;-79
2022/02/12 11:07:05;;;;;;;5.25;2.20;;;;;;;9.61;44.26;96559.84;4996983;28;20061;-77
2022/02/12 11:09:31;;;;;;;6.38;2.30;;;;;;;10.46;42.04;96562.47;4994535;28;20046;-76
2022/02/12 11:12:05;;;;;;;5.82;2.33;;;;;;;10.32;42.27;96551.50;4984837;28;20041;-80
2022/02/12 11:14:33;;;;;;;5.07;2.13;;;;;;;9.92;43.48;96545.38;4998151;28;20470;-79
2022/02/12 11:17:05;;;;;;;6.38;2.38;;;;;;;8.57;45.10;96553.69;4991968;28;20042;-79
2022/02/12 11:19:32;;;;;;;5.07;2.25;;;;;;;8.64;45.90;96556.97;4990900;28;20042;-76
2022/02/12 11:21:59;;;;;;;3.80;2.28;;;;;;;8.41;47.09;96548.09;4990609;28;20085;-75
2022/02/12 11:24:43;;;;;;;4.70;1.98;;;;;;;9.26;43.86;96537.16;4988697;28;20096;-75
2022/02/12 11:27:26;;;;;;;4.22;2.15;;;;;;;9.15;42.41;96541.44;4990345;28;20035;-77
2022/02/12 11:29:54;;;;;;;4.32;2.10;;;;;;;8.99;44.29;96527.22;4993155;28;20046;-76
2022/02/12 11:32:24;;;;;;;5.60;2.47;;;;;;;10.04;42.73;96526.88;4999919;28;20076;-77
2022/02/12 11:34:50;;;;;;;6.50;2.38;;;;;;;10.21;42.03;96513.69;4989440;28;20054;-77